sensor_id;sensor_type;location;lat;lon;timestamp;temperature;humidity
29281;DHT22;25048;49.590;11.026;2023-02-28T00:01:13;-3.20;99.90
29281;DHT22;25048;49.590;11.026;2023-02-28T00:03:41;-3.10;99.90
29281;DHT22;25048;49.590;11.026;2023-02-28T00:06:09;-3.10;99.90
29281;DHT22;25048;49.590;11.026;2023-02-28T00:08:38;-3.00;99.90
29281;DHT22;25048;49.590;11.026;2023-02-28T00:11:08;-3.10;99.90
29281;DHT22;25048;49.590;11.026;2023-02-28T00:13:38;-3.00;99.90
29281;DHT22;25048;49.590;11.026;2023-02-28T00:16:09;-3.00;99.90
29281;DHT22;25048;49.590;11.026;2023-02-28T00:18:37;-3.10;99.90
29281;DHT22;25048;49.590;11.026;2023-02-28T00:21:05;-3.10;99.90
29281;DHT22;25048;49.590;11.026;2023-02-28T00:23:33;-3.10;99.90
29281;DHT22;25048;49.590;11.026;2023-02-28T00:26:00;-3.10;99.90
29281;DHT22;25048;49.590;11.026;2023-02-28T00:28:28;-3.10;99.90
29281;DHT22;25048;49.590;11.026;2023-02-28T00:30:56;-3.00;99.90
29281;DHT22;25048;49.590;11.026;2023-02-28T00:33:24;-3.00;99.90
29281;DHT22;25048;49.590;11.026;2023-02-28T00:35:51;-3.10;99.90
29281;DHT22;25048;49.590;11.026;2023-02-28T00:38:19;-3.10;99.90
29281;DHT22;25048;49.590;11.026;2023-02-28T00:40:46;-3.00;99.90
29281;DHT22;25048;49.590;11.026;2023-02-28T00:43:14;-2.90;99.90
29281;DHT22;25048;49.590;11.026;2023-02-28T00:45:41;-2.90;99.90
29281;DHT22;25048;49.590;11.026;2023-02-28T00:48:09;-2.90;99.90
29281;DHT22;25048;49.590;11.026;2023-02-28T00:50:36;-2.80;99.90
29281;DHT22;25048;49.590;11.026;2023-02-28T00:53:04;-2.90;99.90
29281;DHT22;25048;49.590;11.026;2023-02-28T00:55:32;-2.80;99.90
29281;DHT22;25048;49.590;11.026;2023-02-28T00:57:59;-2.80;99.90
29281;DHT22;25048;49.590;11.026;2023-02-28T01:00:27;-2.70;99.90
29281;DHT22;25048;49.590;11.026;2023-02-28T01:02:54;-2.70;99.90
29281;DHT22;25048;49.590;11.026;2023-02-28T01:05:22;-2.80;99.90
29281;DHT22;25048;49.590;11.026;2023-02-28T01:07:50;-2.80;99.90
29281;DHT22;25048;49.590;11.026;2023-02-28T01:10:17;-2.90;99.90
29281;DHT22;25048;49.590;11.026;2023-02-28T01:12:45;-2.90;99.90
29281;DHT22;25048;49.590;11.026;2023-02-28T01:15:12;-2.90;99.90
29281;DHT22;25048;49.590;11.026;2023-02-28T01:17:40;-2.90;99.90
29281;DHT22;25048;49.590;11.026;2023-02-28T01:20:08;-3.00;99.90
29281;DHT22;25048;49.590;11.026;2023-02-28T01:22:36;-3.00;99.90
29281;DHT22;25048;49.590;11.026;2023-02-28T01:25:04;-3.00;99.90
29281;DHT22;25048;49.590;11.026;2023-02-28T01:27:31;-3.00;99.90
29281;DHT22;25048;49.590;11.026;2023-02-28T01:29:59;-3.10;99.90
29281;DHT22;25048;49.590;11.026;2023-02-28T01:32:26;-3.10;99.90
29281;DHT22;25048;49.590;11.026;2023-02-28T01:34:54;-3.10;99.90
29281;DHT22;25048;49.590;11.026;2023-02-28T01:37:21;-3.20;99.90
29281;DHT22;25048;49.590;11.026;2023-02-28T01:39:49;-3.30;99.90
29281;DHT22;25048;49.590;11.026;2023-02-28T01:42:16;-3.40;99.90
29281;DHT22;25048;49.590;11.026;2023-02-28T01:45:16;-3.40;99.90
29281;DHT22;25048;49.590;11.026;2023-02-28T01:47:44;-3.40;99.90
29281;DHT22;25048;49.590;11.026;2023-02-28T01:50:15;-3.30;99.90
29281;DHT22;25048;49.590;11.026;2023-02-28T01:52:43;-3.40;99.90
29281;DHT22;25048;49.590;11.026;2023-02-28T01:55:11;-3.30;99.90
29281;DHT22;25048;49.590;11.026;2023-02-28T01:57:42;-3.40;99.90
29281;DHT22;25048;49.590;11.026;2023-02-28T02:00:12;-3.40;99.90
29281;DHT22;25048;49.590;11.026;2023-02-28T02:02:51;-3.40;99.90
29281;DHT22;25048;49.590;11.026;2023-02-28T02:05:20;-3.40;99.90
29281;DHT22;25048;49.590;11.026;2023-02-28T02:07:51;-3.40;99.90
29281;DHT22;25048;49.590;11.026;2023-02-28T02:18:52;-3.30;99.90
29281;DHT22;25048;49.590;11.026;2023-02-28T02:26:44;-3.50;99.90
29281;DHT22;25048;49.590;11.026;2023-02-28T02:32:40;-3.40;99.90
29281;DHT22;25048;49.590;11.026;2023-02-28T02:38:11;-3.40;99.90
29281;DHT22;25048;49.590;11.026;2023-02-28T02:40:56;-3.30;99.90
29281;DHT22;25048;49.590;11.026;2023-02-28T02:46:23;-3.20;99.90
29281;DHT22;25048;49.590;11.026;2023-02-28T02:48:51;-3.20;99.90
29281;DHT22;25048;49.590;11.026;2023-02-28T02:51:22;-3.20;99.90
29281;DHT22;25048;49.590;11.026;2023-02-28T02:53:57;-3.30;99.90
29281;DHT22;25048;49.590;11.026;2023-02-28T02:56:23;-3.20;99.90
29281;DHT22;25048;49.590;11.026;2023-02-28T02:58:53;-3.20;99.90
29281;DHT22;25048;49.590;11.026;2023-02-28T03:01:24;-3.20;99.90
29281;DHT22;25048;49.590;11.026;2023-02-28T03:03:57;-3.20;99.90
29281;DHT22;25048;49.590;11.026;2023-02-28T03:06:25;-3.10;99.90
29281;DHT22;25048;49.590;11.026;2023-02-28T03:08:53;-3.10;99.90
29281;DHT22;25048;49.590;11.026;2023-02-28T03:11:21;-3.00;99.90
29281;DHT22;25048;49.590;11.026;2023-02-28T03:14:12;-3.00;99.90
29281;DHT22;25048;49.590;11.026;2023-02-28T03:17:14;-3.00;99.90
29281;DHT22;25048;49.590;11.026;2023-02-28T03:19:44;-3.00;99.90
29281;DHT22;25048;49.590;11.026;2023-02-28T03:25:13;-3.00;99.90
29281;DHT22;25048;49.590;11.026;2023-02-28T03:27:45;-2.90;99.90
29281;DHT22;25048;49.590;11.026;2023-02-28T03:30:27;-2.90;99.90
29281;DHT22;25048;49.590;11.026;2023-02-28T03:32:57;-2.80;99.90
29281;DHT22;25048;49.590;11.026;2023-02-28T03:35:28;-2.80;99.90
29281;DHT22;25048;49.590;11.026;2023-02-28T03:38:05;-2.80;99.90
29281;DHT22;25048;49.590;11.026;2023-02-28T03:40:33;-2.90;99.90
29281;DHT22;25048;49.590;11.026;2023-02-28T03:43:09;-2.90;99.90
29281;DHT22;25048;49.590;11.026;2023-02-28T03:45:35;-2.90;99.90
29281;DHT22;25048;49.590;11.026;2023-02-28T03:48:09;-2.90;99.90
29281;DHT22;25048;49.590;11.026;2023-02-28T03:50:39;-2.90;99.90
29281;DHT22;25048;49.590;11.026;2023-02-28T03:53:10;-2.90;99.90
29281;DHT22;25048;49.590;11.026;2023-02-28T03:55:41;-2.90;99.90
29281;DHT22;25048;49.590;11.026;2023-02-28T03:58:16;-2.90;99.90
29281;DHT22;25048;49.590;11.026;2023-02-28T04:00:45;-2.90;99.90
29281;DHT22;25048;49.590;11.026;2023-02-28T04:03:13;-3.00;99.90
29281;DHT22;25048;49.590;11.026;2023-02-28T04:05:50;-3.00;99.90
29281;DHT22;25048;49.590;11.026;2023-02-28T04:08:14;-3.00;99.90
29281;DHT22;25048;49.590;11.026;2023-02-28T04:10:42;-3.10;99.90
29281;DHT22;25048;49.590;11.026;2023-02-28T04:13:11;-3.10;99.90
29281;DHT22;25048;49.590;11.026;2023-02-28T04:15:38;-3.00;99.90
29281;DHT22;25048;49.590;11.026;2023-02-28T04:18:06;-3.00;99.90
29281;DHT22;25048;49.590;11.026;2023-02-28T04:20:33;-3.00;99.90
29281;DHT22;25048;49.590;11.026;2023-02-28T04:23:01;-3.00;99.90
29281;DHT22;25048;49.590;11.026;2023-02-28T04:25:28;-3.00;99.90
29281;DHT22;25048;49.590;11.026;2023-02-28T04:27:56;-3.00;99.90
29281;DHT22;25048;49.590;11.026;2023-02-28T04:30:23;-3.10;99.90
29281;DHT22;25048;49.590;11.026;2023-02-28T04:32:51;-3.20;99.90
29281;DHT22;25048;49.590;11.026;2023-02-28T04:35:18;-3.20;99.90
29281;DHT22;25048;49.590;11.026;2023-02-28T04:37:46;-3.20;99.90
29281;DHT22;25048;49.590;11.026;2023-02-28T04:40:13;-3.20;99.90
29281;DHT22;25048;49.590;11.026;2023-02-28T04:42:41;-3.20;99.90
29281;DHT22;25048;49.590;11.026;2023-02-28T04:45:09;-3.20;99.90
29281;DHT22;25048;49.590;11.026;2023-02-28T04:47:37;-3.30;99.90
29281;DHT22;25048;49.590;11.026;2023-02-28T04:50:04;-3.30;99.90
29281;DHT22;25048;49.590;11.026;2023-02-28T04:52:32;-3.20;99.90
29281;DHT22;25048;49.590;11.026;2023-02-28T04:55:00;-3.20;99.90
29281;DHT22;25048;49.590;11.026;2023-02-28T04:57:28;-3.20;99.90
29281;DHT22;25048;49.590;11.026;2023-02-28T04:59:56;-3.20;99.90
29281;DHT22;25048;49.590;11.026;2023-02-28T05:02:23;-3.10;99.90
29281;DHT22;25048;49.590;11.026;2023-02-28T05:04:51;-3.10;99.90
29281;DHT22;25048;49.590;11.026;2023-02-28T05:07:18;-3.00;99.90
29281;DHT22;25048;49.590;11.026;2023-02-28T05:09:46;-2.90;99.90
29281;DHT22;25048;49.590;11.026;2023-02-28T05:12:13;-2.90;99.90
29281;DHT22;25048;49.590;11.026;2023-02-28T05:14:41;-2.90;99.90
29281;DHT22;25048;49.590;11.026;2023-02-28T05:17:09;-2.90;99.90
29281;DHT22;25048;49.590;11.026;2023-02-28T05:19:36;-2.90;99.90
29281;DHT22;25048;49.590;11.026;2023-02-28T05:22:04;-3.00;99.90
29281;DHT22;25048;49.590;11.026;2023-02-28T05:24:31;-3.00;99.90
29281;DHT22;25048;49.590;11.026;2023-02-28T05:26:59;-3.00;99.90
29281;DHT22;25048;49.590;11.026;2023-02-28T05:29:26;-3.00;99.90
29281;DHT22;25048;49.590;11.026;2023-02-28T05:31:54;-2.90;99.90
29281;DHT22;25048;49.590;11.026;2023-02-28T05:34:21;-3.00;99.90
29281;DHT22;25048;49.590;11.026;2023-02-28T05:36:49;-3.00;99.90
29281;DHT22;25048;49.590;11.026;2023-02-28T05:39:16;-3.00;99.90
29281;DHT22;25048;49.590;11.026;2023-02-28T05:41:44;-3.00;99.90
29281;DHT22;25048;49.590;11.026;2023-02-28T05:44:11;-3.00;99.90
29281;DHT22;25048;49.590;11.026;2023-02-28T05:46:39;-3.00;99.90
29281;DHT22;25048;49.590;11.026;2023-02-28T05:49:06;-3.10;99.90
29281;DHT22;25048;49.590;11.026;2023-02-28T05:51:34;-3.10;99.90
29281;DHT22;25048;49.590;11.026;2023-02-28T05:54:02;-3.00;99.90
29281;DHT22;25048;49.590;11.026;2023-02-28T05:56:30;-3.00;99.90
29281;DHT22;25048;49.590;11.026;2023-02-28T05:58:57;-2.90;99.90
29281;DHT22;25048;49.590;11.026;2023-02-28T06:01:42;-2.90;99.90
29281;DHT22;25048;49.590;11.026;2023-02-28T06:04:11;-2.90;99.90
29281;DHT22;25048;49.590;11.026;2023-02-28T06:06:41;-2.80;99.90
29281;DHT22;25048;49.590;11.026;2023-02-28T06:09:08;-2.80;99.90
29281;DHT22;25048;49.590;11.026;2023-02-28T06:11:36;-2.80;99.90
29281;DHT22;25048;49.590;11.026;2023-02-28T06:14:04;-2.90;99.90
29281;DHT22;25048;49.590;11.026;2023-02-28T06:16:33;-2.90;99.90
29281;DHT22;25048;49.590;11.026;2023-02-28T06:19:03;-2.90;99.90
29281;DHT22;25048;49.590;11.026;2023-02-28T06:21:31;-2.80;99.90
29281;DHT22;25048;49.590;11.026;2023-02-28T06:23:59;-2.80;99.90
29281;DHT22;25048;49.590;11.026;2023-02-28T06:26:27;-2.80;99.90
29281;DHT22;25048;49.590;11.026;2023-02-28T06:28:54;-2.80;99.90
29281;DHT22;25048;49.590;11.026;2023-02-28T06:31:22;-2.70;99.90
29281;DHT22;25048;49.590;11.026;2023-02-28T06:33:51;-2.70;99.90
29281;DHT22;25048;49.590;11.026;2023-02-28T06:36:18;-2.60;99.90
29281;DHT22;25048;49.590;11.026;2023-02-28T06:38:46;-2.60;99.90
29281;DHT22;25048;49.590;11.026;2023-02-28T06:41:15;-2.60;99.90
29281;DHT22;25048;49.590;11.026;2023-02-28T06:43:43;-2.50;99.90
29281;DHT22;25048;49.590;11.026;2023-02-28T06:46:13;-2.50;99.90
29281;DHT22;25048;49.590;11.026;2023-02-28T06:48:46;-2.30;99.90
29281;DHT22;25048;49.590;11.026;2023-02-28T06:51:17;-2.20;99.90
29281;DHT22;25048;49.590;11.026;2023-02-28T06:53:41;-2.20;99.90
29281;DHT22;25048;49.590;11.026;2023-02-28T06:56:11;-2.00;99.90
29281;DHT22;25048;49.590;11.026;2023-02-28T06:58:39;-2.00;99.90
29281;DHT22;25048;49.590;11.026;2023-02-28T07:01:08;-1.90;99.90
29281;DHT22;25048;49.590;11.026;2023-02-28T07:03:36;-1.70;99.90
29281;DHT22;25048;49.590;11.026;2023-02-28T07:06:04;-1.60;99.90
29281;DHT22;25048;49.590;11.026;2023-02-28T07:08:34;-1.50;99.90
29281;DHT22;25048;49.590;11.026;2023-02-28T07:11:02;-1.40;99.90
29281;DHT22;25048;49.590;11.026;2023-02-28T07:13:30;-1.30;99.90
29281;DHT22;25048;49.590;11.026;2023-02-28T07:16:04;-1.20;99.90
29281;DHT22;25048;49.590;11.026;2023-02-28T07:18:28;-1.10;99.90
29281;DHT22;25048;49.590;11.026;2023-02-28T07:20:55;-1.00;99.90
29281;DHT22;25048;49.590;11.026;2023-02-28T07:23:23;-0.90;99.90
29281;DHT22;25048;49.590;11.026;2023-02-28T07:25:51;-0.80;99.90
29281;DHT22;25048;49.590;11.026;2023-02-28T07:28:19;-0.70;99.90
29281;DHT22;25048;49.590;11.026;2023-02-28T07:30:46;-0.50;99.90
29281;DHT22;25048;49.590;11.026;2023-02-28T07:33:14;-0.30;99.90
29281;DHT22;25048;49.590;11.026;2023-02-28T07:35:42;-0.20;99.90
29281;DHT22;25048;49.590;11.026;2023-02-28T07:38:10;0.00;99.90
29281;DHT22;25048;49.590;11.026;2023-02-28T07:40:39;0.10;99.90
29281;DHT22;25048;49.590;11.026;2023-02-28T07:43:06;0.30;99.90
29281;DHT22;25048;49.590;11.026;2023-02-28T07:45:34;0.50;99.90
29281;DHT22;25048;49.590;11.026;2023-02-28T07:48:01;0.70;99.90
29281;DHT22;25048;49.590;11.026;2023-02-28T07:50:29;0.90;99.90
29281;DHT22;25048;49.590;11.026;2023-02-28T07:52:58;1.10;99.90
29281;DHT22;25048;49.590;11.026;2023-02-28T07:55:26;0.90;99.90
29281;DHT22;25048;49.590;11.026;2023-02-28T07:57:53;1.00;99.90
29281;DHT22;25048;49.590;11.026;2023-02-28T08:00:21;1.20;99.90
29281;DHT22;25048;49.590;11.026;2023-02-28T08:02:49;1.30;99.90
29281;DHT22;25048;49.590;11.026;2023-02-28T08:05:17;1.50;99.90
29281;DHT22;25048;49.590;11.026;2023-02-28T08:07:45;1.70;99.90
29281;DHT22;25048;49.590;11.026;2023-02-28T08:10:14;1.90;99.90
29281;DHT22;25048;49.590;11.026;2023-02-28T08:12:41;2.00;99.90
29281;DHT22;25048;49.590;11.026;2023-02-28T08:15:09;2.00;99.90
29281;DHT22;25048;49.590;11.026;2023-02-28T08:17:36;2.20;99.90
29281;DHT22;25048;49.590;11.026;2023-02-28T08:20:04;2.10;99.90
29281;DHT22;25048;49.590;11.026;2023-02-28T08:22:32;2.10;99.90
29281;DHT22;25048;49.590;11.026;2023-02-28T08:24:59;2.00;99.90
29281;DHT22;25048;49.590;11.026;2023-02-28T08:27:28;2.10;99.90
29281;DHT22;25048;49.590;11.026;2023-02-28T08:29:56;2.10;99.90
29281;DHT22;25048;49.590;11.026;2023-02-28T08:32:24;2.20;99.90
29281;DHT22;25048;49.590;11.026;2023-02-28T08:34:51;2.10;99.90
29281;DHT22;25048;49.590;11.026;2023-02-28T08:37:19;2.10;99.90
29281;DHT22;25048;49.590;11.026;2023-02-28T08:39:46;2.10;99.90
29281;DHT22;25048;49.590;11.026;2023-02-28T08:42:14;2.20;99.90
29281;DHT22;25048;49.590;11.026;2023-02-28T08:44:41;2.30;99.90
29281;DHT22;25048;49.590;11.026;2023-02-28T08:47:09;2.40;99.90
29281;DHT22;25048;49.590;11.026;2023-02-28T08:49:37;2.40;99.90
29281;DHT22;25048;49.590;11.026;2023-02-28T08:52:04;2.50;99.90
29281;DHT22;25048;49.590;11.026;2023-02-28T08:54:32;2.60;99.90
29281;DHT22;25048;49.590;11.026;2023-02-28T08:57:01;2.80;99.90
29281;DHT22;25048;49.590;11.026;2023-02-28T08:59:29;3.00;99.90
29281;DHT22;25048;49.590;11.026;2023-02-28T09:01:57;3.10;99.90
29281;DHT22;25048;49.590;11.026;2023-02-28T09:04:24;3.10;99.90
29281;DHT22;25048;49.590;11.026;2023-02-28T09:06:51;3.00;99.90
29281;DHT22;25048;49.590;11.026;2023-02-28T09:09:19;3.00;99.90
29281;DHT22;25048;49.590;11.026;2023-02-28T09:11:47;2.90;99.90
29281;DHT22;25048;49.590;11.026;2023-02-28T09:14:14;2.90;99.90
29281;DHT22;25048;49.590;11.026;2023-02-28T09:16:43;2.70;99.90
29281;DHT22;25048;49.590;11.026;2023-02-28T09:19:12;2.80;99.90
29281;DHT22;25048;49.590;11.026;2023-02-28T09:21:40;2.90;99.90
29281;DHT22;25048;49.590;11.026;2023-02-28T09:24:07;2.70;99.90
29281;DHT22;25048;49.590;11.026;2023-02-28T09:26:39;3.00;99.90
29281;DHT22;25048;49.590;11.026;2023-02-28T09:29:07;3.20;99.90
29281;DHT22;25048;49.590;11.026;2023-02-28T09:31:34;3.30;99.90
29281;DHT22;25048;49.590;11.026;2023-02-28T09:34:03;3.40;99.90
29281;DHT22;25048;49.590;11.026;2023-02-28T09:36:31;3.10;99.90
29281;DHT22;25048;49.590;11.026;2023-02-28T09:38:59;2.60;99.90
29281;DHT22;25048;49.590;11.026;2023-02-28T09:41:27;2.50;99.90
29281;DHT22;25048;49.590;11.026;2023-02-28T09:43:59;2.40;99.90
29281;DHT22;25048;49.590;11.026;2023-02-28T09:46:50;2.40;99.90
29281;DHT22;25048;49.590;11.026;2023-02-28T09:49:12;2.30;99.90
29281;DHT22;25048;49.590;11.026;2023-02-28T09:52:01;2.60;99.90
29281;DHT22;25048;49.590;11.026;2023-02-28T09:54:31;3.10;99.90
29281;DHT22;25048;49.590;11.026;2023-02-28T09:57:08;3.50;99.90
29281;DHT22;25048;49.590;11.026;2023-02-28T10:05:22;4.50;99.90
29281;DHT22;25048;49.590;11.026;2023-02-28T10:08:01;4.80;99.90
29281;DHT22;25048;49.590;11.026;2023-02-28T10:10:51;4.80;99.90
29281;DHT22;25048;49.590;11.026;2023-02-28T10:16:39;4.70;99.90
29281;DHT22;25048;49.590;11.026;2023-02-28T10:21:43;4.70;99.90
29281;DHT22;25048;49.590;11.026;2023-02-28T10:24:20;5.00;99.90
29281;DHT22;25048;49.590;11.026;2023-02-28T10:26:51;5.20;99.90
29281;DHT22;25048;49.590;11.026;2023-02-28T10:29:23;5.30;99.90
29281;DHT22;25048;49.590;11.026;2023-02-28T10:31:51;5.30;99.90
29281;DHT22;25048;49.590;11.026;2023-02-28T10:34:18;5.30;99.80
29281;DHT22;25048;49.590;11.026;2023-02-28T10:36:46;5.40;99.90
29281;DHT22;25048;49.590;11.026;2023-02-28T10:39:46;5.70;99.90
29281;DHT22;25048;49.590;11.026;2023-02-28T10:42:27;5.90;99.80
29281;DHT22;25048;49.590;11.026;2023-02-28T10:45:10;6.10;99.80
29281;DHT22;25048;49.590;11.026;2023-02-28T10:47:48;6.30;99.60
29281;DHT22;25048;49.590;11.026;2023-02-28T10:50:52;6.40;99.40
29281;DHT22;25048;49.590;11.026;2023-02-28T10:52:40;6.50;98.00
29281;DHT22;25048;49.590;11.026;2023-02-28T10:55:25;6.40;96.80
29281;DHT22;25048;49.590;11.026;2023-02-28T10:57:53;6.60;97.50
29281;DHT22;25048;49.590;11.026;2023-02-28T11:00:19;6.40;96.80
29281;DHT22;25048;49.590;11.026;2023-02-28T11:02:48;6.60;97.80
29281;DHT22;25048;49.590;11.026;2023-02-28T11:05:31;6.90;97.40
29281;DHT22;25048;49.590;11.026;2023-02-28T11:08:14;6.60;95.30
29281;DHT22;25048;49.590;11.026;2023-02-28T11:10:46;6.60;95.60
29281;DHT22;25048;49.590;11.026;2023-02-28T11:13:19;6.80;96.50
29281;DHT22;25048;49.590;11.026;2023-02-28T11:15:55;6.90;95.70
29281;DHT22;25048;49.590;11.026;2023-02-28T11:18:35;7.00;95.60
29281;DHT22;25048;49.590;11.026;2023-02-28T11:21:01;7.20;95.80
29281;DHT22;25048;49.590;11.026;2023-02-28T11:23:32;7.40;94.40
29281;DHT22;25048;49.590;11.026;2023-02-28T11:26:02;7.60;95.30
29281;DHT22;25048;49.590;11.026;2023-02-28T11:28:33;7.70;94.30
29281;DHT22;25048;49.590;11.026;2023-02-28T11:31:13;7.80;94.00
29281;DHT22;25048;49.590;11.026;2023-02-28T11:33:49;7.70;92.70
29281;DHT22;25048;49.590;11.026;2023-02-28T11:36:26;7.60;94.40
29281;DHT22;25048;49.590;11.026;2023-02-28T11:39:07;7.80;93.10
29281;DHT22;25048;49.590;11.026;2023-02-28T11:55:42;8.00;91.60
29281;DHT22;25048;49.590;11.026;2023-02-28T12:11:56;8.20;90.60
29281;DHT22;25048;49.590;11.026;2023-02-28T12:25:47;7.90;89.70
29281;DHT22;25048;49.590;11.026;2023-02-28T12:28:13;7.90;91.10
29281;DHT22;25048;49.590;11.026;2023-02-28T12:30:49;8.00;91.10
29281;DHT22;25048;49.590;11.026;2023-02-28T12:33:17;8.00;90.40
29281;DHT22;25048;49.590;11.026;2023-02-28T12:35:57;7.80;88.90
29281;DHT22;25048;49.590;11.026;2023-02-28T12:38:38;7.80;90.60
29281;DHT22;25048;49.590;11.026;2023-02-28T12:41:15;7.90;90.10
29281;DHT22;25048;49.590;11.026;2023-02-28T12:43:45;7.90;91.00
29281;DHT22;25048;49.590;11.026;2023-02-28T12:46:23;8.30;90.50
29281;DHT22;25048;49.590;11.026;2023-02-28T12:48:53;8.30;88.60
29281;DHT22;25048;49.590;11.026;2023-02-28T12:51:24;8.50;89.10
29281;DHT22;25048;49.590;11.026;2023-02-28T12:56:58;8.70;89.40
29281;DHT22;25048;49.590;11.026;2023-02-28T12:59:45;8.80;90.40
29281;DHT22;25048;49.590;11.026;2023-02-28T13:02:42;8.70;87.90
29281;DHT22;25048;49.590;11.026;2023-02-28T13:08:50;9.10;88.30
29281;DHT22;25048;49.590;11.026;2023-02-28T13:10:45;9.10;87.50
29281;DHT22;25048;49.590;11.026;2023-02-28T13:13:14;9.20;87.90
29281;DHT22;25048;49.590;11.026;2023-02-28T13:16:05;9.50;88.70
29281;DHT22;25048;49.590;11.026;2023-02-28T13:18:38;9.80;86.30
29281;DHT22;25048;49.590;11.026;2023-02-28T13:21:22;10.10;83.40
29281;DHT22;25048;49.590;11.026;2023-02-28T13:23:56;10.60;82.30
29281;DHT22;25048;49.590;11.026;2023-02-28T13:26:12;10.80;81.90
29281;DHT22;25048;49.590;11.026;2023-02-28T13:29:02;11.60;81.30
29281;DHT22;25048;49.590;11.026;2023-02-28T13:34:39;12.50;77.90
29281;DHT22;25048;49.590;11.026;2023-02-28T13:37:34;13.00;74.40
29281;DHT22;25048;49.590;11.026;2023-02-28T13:43:01;13.60;71.20
29281;DHT22;25048;49.590;11.026;2023-02-28T13:48:25;13.50;66.40
29281;DHT22;25048;49.590;11.026;2023-02-28T13:50:52;14.10;66.20
29281;DHT22;25048;49.590;11.026;2023-02-28T13:56:40;15.10;61.80
29281;DHT22;25048;49.590;11.026;2023-02-28T13:59:19;14.20;62.20
29281;DHT22;25048;49.590;11.026;2023-02-28T14:07:39;15.90;59.30
29281;DHT22;25048;49.590;11.026;2023-02-28T14:10:15;15.60;56.20
29281;DHT22;25048;49.590;11.026;2023-02-28T14:13:01;14.70;57.40
29281;DHT22;25048;49.590;11.026;2023-02-28T14:16:03;14.90;56.40
29281;DHT22;25048;49.590;11.026;2023-02-28T14:18:40;14.80;56.60
29281;DHT22;25048;49.590;11.026;2023-02-28T14:23:46;15.20;56.20
29281;DHT22;25048;49.590;11.026;2023-02-28T14:26:31;15.40;55.60
29281;DHT22;25048;49.590;11.026;2023-02-28T14:29:50;15.30;56.60
29281;DHT22;25048;49.590;11.026;2023-02-28T14:32:18;16.00;56.20
29281;DHT22;25048;49.590;11.026;2023-02-28T14:37:49;16.80;51.60
29281;DHT22;25048;49.590;11.026;2023-02-28T14:40:28;17.50;50.70
29281;DHT22;25048;49.590;11.026;2023-02-28T14:43:04;17.50;51.00
29281;DHT22;25048;49.590;11.026;2023-02-28T14:45:39;19.00;49.10
29281;DHT22;25048;49.590;11.026;2023-02-28T14:48:11;19.10;49.10
29281;DHT22;25048;49.590;11.026;2023-02-28T14:50:42;18.40;47.40
29281;DHT22;25048;49.590;11.026;2023-02-28T14:53:18;17.70;48.00
29281;DHT22;25048;49.590;11.026;2023-02-28T14:55:52;17.60;48.50
29281;DHT22;25048;49.590;11.026;2023-02-28T14:58:33;17.80;49.60
29281;DHT22;25048;49.590;11.026;2023-02-28T15:00:59;17.10;47.30
29281;DHT22;25048;49.590;11.026;2023-02-28T15:03:53;17.50;48.40
29281;DHT22;25048;49.590;11.026;2023-02-28T15:06:22;17.00;47.40
29281;DHT22;25048;49.590;11.026;2023-02-28T15:09:07;16.60;48.70
29281;DHT22;25048;49.590;11.026;2023-02-28T15:11:36;16.40;47.80
29281;DHT22;25048;49.590;11.026;2023-02-28T15:14:16;16.30;50.00
29281;DHT22;25048;49.590;11.026;2023-02-28T15:16:42;16.10;50.50
29281;DHT22;25048;49.590;11.026;2023-02-28T15:19:32;15.70;49.60
29281;DHT22;25048;49.590;11.026;2023-02-28T15:22:12;15.30;49.60
29281;DHT22;25048;49.590;11.026;2023-02-28T15:24:48;15.00;51.70
29281;DHT22;25048;49.590;11.026;2023-02-28T15:27:28;15.00;51.00
29281;DHT22;25048;49.590;11.026;2023-02-28T15:30:13;14.80;51.60
29281;DHT22;25048;49.590;11.026;2023-02-28T15:32:38;14.70;51.30
29281;DHT22;25048;49.590;11.026;2023-02-28T15:35:30;14.30;52.10
29281;DHT22;25048;49.590;11.026;2023-02-28T15:38:15;14.10;52.00
29281;DHT22;25048;49.590;11.026;2023-02-28T15:40:45;14.30;52.40
29281;DHT22;25048;49.590;11.026;2023-02-28T15:43:33;13.90;53.10
29281;DHT22;25048;49.590;11.026;2023-02-28T15:45:59;13.10;54.40
29281;DHT22;25048;49.590;11.026;2023-02-28T15:48:35;13.00;54.40
29281;DHT22;25048;49.590;11.026;2023-02-28T15:51:16;12.60;55.70
29281;DHT22;25048;49.590;11.026;2023-02-28T15:54:07;12.60;56.10
29281;DHT22;25048;49.590;11.026;2023-02-28T15:56:46;12.30;55.70
29281;DHT22;25048;49.590;11.026;2023-02-28T15:59:26;12.40;55.90
29281;DHT22;25048;49.590;11.026;2023-02-28T16:02:16;12.50;55.90
29281;DHT22;25048;49.590;11.026;2023-02-28T16:05:12;11.80;56.60
29281;DHT22;25048;49.590;11.026;2023-02-28T16:07:30;10.50;59.10
29281;DHT22;25048;49.590;11.026;2023-02-28T16:09:57;8.90;62.50
29281;DHT22;25048;49.590;11.026;2023-02-28T16:12:29;7.70;66.30
29281;DHT22;25048;49.590;11.026;2023-02-28T16:14:59;6.60;70.60
29281;DHT22;25048;49.590;11.026;2023-02-28T16:17:31;6.10;71.90
29281;DHT22;25048;49.590;11.026;2023-02-28T16:20:00;5.50;74.40
29281;DHT22;25048;49.590;11.026;2023-02-28T16:22:27;5.20;76.00
29281;DHT22;25048;49.590;11.026;2023-02-28T16:24:55;4.90;76.80
29281;DHT22;25048;49.590;11.026;2023-02-28T16:27:31;4.70;78.70
29281;DHT22;25048;49.590;11.026;2023-02-28T16:29:59;4.50;79.50
29281;DHT22;25048;49.590;11.026;2023-02-28T16:32:27;4.30;82.10
29281;DHT22;25048;49.590;11.026;2023-02-28T16:34:55;4.10;82.10
29281;DHT22;25048;49.590;11.026;2023-02-28T16:37:23;4.00;83.50
29281;DHT22;25048;49.590;11.026;2023-02-28T16:39:50;3.90;84.20
29281;DHT22;25048;49.590;11.026;2023-02-28T16:42:23;3.80;84.10
29281;DHT22;25048;49.590;11.026;2023-02-28T16:44:52;3.60;86.30
29281;DHT22;25048;49.590;11.026;2023-02-28T16:47:20;3.50;87.00
29281;DHT22;25048;49.590;11.026;2023-02-28T16:49:47;3.30;88.60
29281;DHT22;25048;49.590;11.026;2023-02-28T16:52:15;3.20;89.50
29281;DHT22;25048;49.590;11.026;2023-02-28T16:54:43;3.10;90.00
29281;DHT22;25048;49.590;11.026;2023-02-28T16:57:17;3.00;90.80
29281;DHT22;25048;49.590;11.026;2023-02-28T16:59:44;2.80;91.20
29281;DHT22;25048;49.590;11.026;2023-02-28T17:02:14;2.60;91.60
29281;DHT22;25048;49.590;11.026;2023-02-28T17:04:42;2.50;92.60
29281;DHT22;25048;49.590;11.026;2023-02-28T17:07:11;2.30;92.80
29281;DHT22;25048;49.590;11.026;2023-02-28T17:09:40;2.20;93.80
29281;DHT22;25048;49.590;11.026;2023-02-28T17:12:08;2.00;94.30
29281;DHT22;25048;49.590;11.026;2023-02-28T17:14:35;1.90;94.90
29281;DHT22;25048;49.590;11.026;2023-02-28T17:17:05;1.80;95.50
29281;DHT22;25048;49.590;11.026;2023-02-28T17:19:33;1.60;95.90
29281;DHT22;25048;49.590;11.026;2023-02-28T17:22:02;1.50;96.60
29281;DHT22;25048;49.590;11.026;2023-02-28T17:24:29;1.40;97.40
29281;DHT22;25048;49.590;11.026;2023-02-28T17:26:57;1.20;97.60
29281;DHT22;25048;49.590;11.026;2023-02-28T17:29:25;1.10;98.30
29281;DHT22;25048;49.590;11.026;2023-02-28T17:31:52;1.00;99.20
29281;DHT22;25048;49.590;11.026;2023-02-28T17:34:20;0.90;99.90